Time;durP1;ratioP1;P1;durP2;ratioP2;P2;SDS_P1;SDS_P2;PMS_P1;PMS_P2;Temp;Humidity;BMP_temperature;BMP_pressure;BME280_temperature;BME280_humidity;BME280_pressure;Samples;Min_cycle;Max_cycle;Signal;HPM_P1;HPM_P2
2023/05/29 00:00:06;;;;;;;7.78;4.45;;;22.40;59.30;;;;;;4988167;28;20049;-55
2023/05/29 00:02:32;;;;;;;6.95;4.50;;;22.30;59.30;;;;;;4986788;28;20404;-55
2023/05/29 00:04:57;;;;;;;5.22;4.32;;;22.30;59.40;;;;;;4988180;28;20114;-55
2023/05/29 00:07:23;;;;;;;6.72;4.50;;;22.30;59.50;;;;;;4986594;28;20027;-55
2023/05/29 00:09:48;;;;;;;6.38;4.15;;;22.30;59.60;;;;;;4987791;28;20035;-55
2023/05/29 00:12:14;;;;;;;6.00;4.38;;;22.20;59.50;;;;;;4988027;28;20086;-55
2023/05/29 00:14:40;;;;;;;8.93;4.82;;;22.20;59.70;;;;;;4986499;28;20039;-55
2023/05/29 00:17:06;;;;;;;6.35;3.95;;;22.20;59.70;;;;;;4988791;28;20033;-55
2023/05/29 00:19:32;;;;;;;5.70;4.18;;;22.20;59.60;;;;;;4986169;28;20478;-55
2023/05/29 00:21:57;;;;;;;6.57;4.35;;;22.10;59.60;;;;;;4970389;28;20355;-55
2023/05/29 00:24:23;;;;;;;4.38;3.97;;;22.10;59.70;;;;;;4987984;28;20120;-55
2023/05/29 00:26:48;;;;;;;7.05;4.55;;;22.10;59.80;;;;;;4987217;28;20046;-55
2023/05/29 00:29:15;;;;;;;7.30;4.45;;;22.00;59.80;;;;;;4988131;28;20368;-55
2023/05/29 00:31:40;;;;;;;5.38;4.20;;;22.00;59.90;;;;;;4988321;28;20041;-55
2023/05/29 00:34:06;;;;;;;5.50;4.50;;;21.90;59.90;;;;;;4986865;28;20031;-55
2023/05/29 00:36:31;;;;;;;6.10;4.30;;;21.90;59.90;;;;;;4987843;28;20102;-55
2023/05/29 00:38:57;;;;;;;6.07;4.50;;;21.90;59.90;;;;;;4986963;28;20099;-55
2023/05/29 00:41:23;;;;;;;7.03;4.63;;;21.90;60.00;;;;;;4986387;28;20026;-55
2023/05/29 00:43:48;;;;;;;6.93;4.35;;;21.80;60.00;;;;;;4986301;28;20027;-55
2023/05/29 00:46:14;;;;;;;6.43;5.10;;;21.80;60.10;;;;;;4987421;28;20050;-55
2023/05/29 00:48:41;;;;;;;6.10;4.18;;;21.70;60.10;;;;;;4985784;28;20030;-55
2023/05/29 00:51:07;;;;;;;5.68;4.00;;;21.70;60.10;;;;;;4986046;28;20027;-55
2023/05/29 00:53:33;;;;;;;7.28;5.03;;;21.70;60.20;;;;;;4969622;28;20026;-55
2023/05/29 00:55:59;;;;;;;7.68;4.72;;;21.60;60.20;;;;;;4985846;28;20094;-55
2023/05/29 00:58:24;;;;;;;8.57;5.22;;;21.60;60.20;;;;;;4985229;28;20027;-55
2023/05/29 01:00:52;;;;;;;8.02;4.80;;;21.60;60.30;;;;;;4985621;28;20031;-55
2023/05/29 01:03:18;;;;;;;6.47;4.75;;;21.60;60.50;;;;;;4985844;28;20046;-54
2023/05/29 01:05:45;;;;;;;5.97;4.57;;;21.50;60.40;;;;;;4969066;28;20038;-55
2023/05/29 01:08:11;;;;;;;6.20;4.22;;;21.50;60.50;;;;;;4986729;28;20029;-54
2023/05/29 01:10:37;;;;;;;6.60;4.70;;;21.50;60.40;;;;;;4985970;28;20046;-55
2023/05/29 01:13:11;;;;;;;7.80;4.68;;;21.40;60.40;;;;;;4985871;28;20039;-55
2023/05/29 01:16:01;;;;;;;7.30;4.68;;;21.40;60.40;;;;;;4985381;28;20408;-55
2023/05/29 01:18:41;;;;;;;8.68;4.63;;;21.40;60.50;;;;;;4985516;28;20041;-55
2023/05/29 01:21:22;;;;;;;6.50;4.50;;;21.30;60.40;;;;;;4985229;28;20105;-55
2023/05/29 01:24:01;;;;;;;8.13;4.47;;;21.30;60.50;;;;;;4969217;28;20038;-55
2023/05/29 01:26:33;;;;;;;7.70;4.47;;;21.30;60.60;;;;;;4985208;28;20122;-55
2023/05/29 01:29:00;;;;;;;8.23;4.70;;;21.20;60.50;;;;;;4985124;28;20029;-55
2023/05/29 01:31:26;;;;;;;5.72;3.75;;;21.20;60.60;;;;;;4985321;28;20126;-55
2023/05/29 01:33:53;;;;;;;6.72;4.60;;;21.20;60.60;;;;;;4986338;28;20114;-55
2023/05/29 01:36:19;;;;;;;6.18;4.40;;;21.20;60.60;;;;;;4969160;28;20027;-55
2023/05/29 01:38:44;;;;;;;4.93;4.22;;;21.20;60.60;;;;;;4985243;28;20058;-55
2023/05/29 01:41:10;;;;;;;5.90;4.05;;;21.20;60.60;;;;;;4985035;28;20023;-55
2023/05/29 01:43:35;;;;;;;7.22;4.22;;;21.10;60.60;;;;;;4968977;28;20107;-55
2023/05/29 01:46:01;;;;;;;5.80;4.05;;;21.10;60.50;;;;;;4985138;28;20026;-55
2023/05/29 01:48:27;;;;;;;8.23;5.03;;;21.10;60.60;;;;;;4985045;28;20066;-55
2023/05/29 01:50:52;;;;;;;4.93;4.10;;;21.00;60.60;;;;;;4984986;28;20393;-55
2023/05/29 01:53:18;;;;;;;7.90;4.82;;;21.00;60.70;;;;;;4968581;28;20031;-55
2023/05/29 01:55:43;;;;;;;7.10;4.53;;;21.00;60.80;;;;;;4984893;28;20034;-55
2023/05/29 01:58:09;;;;;;;6.93;4.38;;;21.00;60.80;;;;;;4968754;28;20451;-55
2023/05/29 02:00:35;;;;;;;6.57;4.45;;;20.90;60.90;;;;;;4968655;28;20380;-55
2023/05/29 02:03:01;;;;;;;5.22;4.57;;;20.90;61.00;;;;;;4985068;28;20045;-55
2023/05/29 02:05:27;;;;;;;6.88;4.25;;;20.80;61.00;;;;;;4983812;28;20076;-55
2023/05/29 02:07:52;;;;;;;6.28;4.60;;;20.80;61.10;;;;;;4982547;28;20489;-55
2023/05/29 02:10:18;;;;;;;6.30;4.70;;;20.80;61.10;;;;;;4982981;28;20042;-55
2023/05/29 02:12:44;;;;;;;6.53;4.57;;;20.70;61.10;;;;;;4968339;28;20085;-54
2023/05/29 02:15:10;;;;;;;5.25;4.22;;;20.70;61.20;;;;;;4985493;28;20030;-55
2023/05/29 02:17:36;;;;;;;7.88;4.57;;;20.70;61.30;;;;;;4985449;28;20061;-55
2023/05/29 02:20:04;;;;;;;7.88;4.70;;;20.70;61.30;;;;;;4984431;28;20031;-55
2023/05/29 02:22:29;;;;;;;7.72;4.60;;;20.60;61.30;;;;;;4984752;28;20030;-55
2023/05/29 02:24:55;;;;;;;7.20;4.55;;;20.60;61.40;;;;;;4985677;28;20031;-55
2023/05/29 02:27:20;;;;;;;7.13;4.63;;;20.60;61.50;;;;;;4986053;28;20041;-55
2023/05/29 02:29:46;;;;;;;7.03;4.38;;;20.50;61.50;;;;;;4984812;28;20027;-55
2023/05/29 02:32:11;;;;;;;5.57;4.10;;;20.50;61.60;;;;;;4984482;28;20041;-57
2023/05/29 02:34:37;;;;;;;6.10;4.70;;;20.50;61.50;;;;;;4985643;28;20095;-55
2023/05/29 02:37:03;;;;;;;7.90;4.50;;;20.50;61.60;;;;;;4985880;28;20034;-55
2023/05/29 02:39:29;;;;;;;8.13;4.60;;;20.40;61.60;;;;;;4984654;28;20031;-55
2023/05/29 02:41:54;;;;;;;7.93;4.35;;;20.40;61.80;;;;;;4984453;28;20038;-54
2023/05/29 02:44:20;;;;;;;8.43;4.50;;;20.40;61.70;;;;;;4986248;28;20062;-55
2023/05/29 02:46:46;;;;;;;6.22;4.47;;;20.40;61.80;;;;;;4984385;28;20031;-55
2023/05/29 02:49:11;;;;;;;5.38;4.40;;;20.40;61.80;;;;;;4968267;28;20138;-55
2023/05/29 02:51:37;;;;;;;5.68;4.22;;;20.30;61.80;;;;;;4986110;28;20026;-55
2023/05/29 02:54:03;;;;;;;7.00;4.30;;;20.30;61.90;;;;;;4985656;28;20039;-54
2023/05/29 02:56:28;;;;;;;7.18;4.53;;;20.20;61.90;;;;;;4984392;28;20023;-55
2023/05/29 02:58:54;;;;;;;6.05;4.35;;;20.30;62.10;;;;;;4985645;28;20057;-55
2023/05/29 03:01:20;;;;;;;7.63;4.57;;;20.20;62.20;;;;;;4968171;28;20042;-55
2023/05/29 03:03:45;;;;;;;5.88;4.53;;;20.20;62.20;;;;;;4985396;28;20031;-54
2023/05/29 03:06:12;;;;;;;6.20;4.72;;;20.20;62.30;;;;;;4969067;28;20034;-55
2023/05/29 03:08:40;;;;;;;7.57;4.85;;;20.20;62.30;;;;;;4985888;28;20043;-55
2023/05/29 03:11:08;;;;;;;6.35;4.63;;;20.10;62.30;;;;;;4984764;28;20042;-55
2023/05/29 03:13:34;;;;;;;8.00;4.65;;;20.10;63.20;;;;;;4985375;28;20031;-54
2023/05/29 03:16:00;;;;;;;6.75;4.20;;;20.10;62.60;;;;;;4985247;28;20103;-55
2023/05/29 03:18:25;;;;;;;8.27;4.60;;;20.10;62.50;;;;;;4984286;28;20019;-55
2023/05/29 03:20:51;;;;;;;6.00;4.43;;;20.10;62.50;;;;;;4984362;28;20463;-55
2023/05/29 03:23:16;;;;;;;5.03;4.40;;;20.00;62.50;;;;;;4987170;28;20158;-55
2023/05/29 03:25:42;;;;;;;6.03;4.55;;;20.00;62.60;;;;;;4987554;28;20034;-55
2023/05/29 03:28:08;;;;;;;8.00;4.70;;;20.00;62.60;;;;;;4989029;28;20039;-55
2023/05/29 03:30:33;;;;;;;6.28;4.40;;;19.90;62.70;;;;;;4988678;28;20039;-55
2023/05/29 03:33:03;;;;;;;5.07;4.03;;;19.90;62.80;;;;;;4971225;28;20060;-55
2023/05/29 03:35:29;;;;;;;6.35;4.47;;;19.90;62.90;;;;;;4987349;28;20061;-55
2023/05/29 03:37:55;;;;;;;6.80;4.88;;;19.90;63.00;;;;;;4988877;28;20029;-55
2023/05/29 03:40:20;;;;;;;6.43;4.70;;;19.80;63.10;;;;;;4987606;28;20459;-55
2023/05/29 03:42:46;;;;;;;5.57;4.70;;;19.80;63.20;;;;;;4988684;28;20089;-55
2023/05/29 03:45:11;;;;;;;6.68;4.65;;;19.80;63.10;;;;;;4987512;28;20031;-55
2023/05/29 03:47:37;;;;;;;6.63;4.65;;;19.80;63.10;;;;;;4987366;28;20073;-55
2023/05/29 03:50:02;;;;;;;5.63;4.00;;;19.70;63.10;;;;;;4987468;28;20030;-55
2023/05/29 03:52:28;;;;;;;5.60;4.50;;;19.70;63.90;;;;;;4987244;28;20030;-55
2023/05/29 03:54:54;;;;;;;5.40;4.78;;;19.70;63.20;;;;;;4987248;28;20468;-55
2023/05/29 03:57:20;;;;;;;6.65;4.30;;;19.70;63.40;;;;;;4988359;28;20027;-55
2023/05/29 03:59:45;;;;;;;5.53;4.70;;;19.60;63.40;;;;;;4986987;28;20031;-55
2023/05/29 04:02:11;;;;;;;9.43;4.75;;;19.60;63.40;;;;;;4988347;28;20113;-55
2023/05/29 04:04:36;;;;;;;5.40;4.85;;;19.60;63.60;;;;;;4987074;28;20035;-55
2023/05/29 04:07:02;;;;;;;6.05;4.57;;;19.50;63.50;;;;;;4986908;28;20136;-55
2023/05/29 04:09:27;;;;;;;5.88;4.45;;;19.50;63.50;;;;;;4986862;28;20034;-55
2023/05/29 04:11:54;;;;;;;6.15;4.93;;;19.50;63.60;;;;;;4986795;28;20042;-55
2023/05/29 04:14:20;;;;;;;5.57;4.30;;;19.50;63.70;;;;;;4970614;28;20031;-55
2023/05/29 04:16:45;;;;;;;5.63;4.18;;;19.50;63.80;;;;;;4987754;28;20175;-55
2023/05/29 04:19:11;;;;;;;9.18;4.70;;;19.50;63.80;;;;;;4987878;28;20045;-55
2023/05/29 04:21:37;;;;;;;5.50;4.40;;;19.50;63.80;;;;;;4987829;28;20042;-55
2023/05/29 04:24:02;;;;;;;5.70;4.40;;;19.40;63.80;;;;;;4986506;28;20061;-55
2023/05/29 04:26:32;;;;;;;6.05;4.80;;;19.40;63.90;;;;;;4988124;28;20081;-55
2023/05/29 04:28:58;;;;;;;7.43;4.57;;;19.40;64.30;;;;;;4987730;28;20039;-55
2023/05/29 04:31:27;;;;;;;6.95;4.32;;;19.40;64.10;;;;;;4986218;28;20468;-55
2023/05/29 04:33:56;;;;;;;6.03;4.35;;;19.30;64.10;;;;;;4985577;28;20041;-55
2023/05/29 04:36:28;;;;;;;5.82;4.63;;;19.30;64.20;;;;;;4985557;28;20035;-55
2023/05/29 04:38:53;;;;;;;6.50;4.90;;;19.30;64.20;;;;;;4986455;28;20471;-55
2023/05/29 04:41:23;;;;;;;6.63;4.50;;;19.30;64.30;;;;;;4985895;28;20046;-55
2023/05/29 04:43:50;;;;;;;6.03;4.07;;;19.30;64.40;;;;;;4987505;28;20042;-55
2023/05/29 04:46:16;;;;;;;6.13;4.65;;;19.30;64.50;;;;;;4987357;28;20031;-55
2023/05/29 04:48:42;;;;;;;6.30;4.70;;;19.30;65.10;;;;;;4987232;28;20049;-55
2023/05/29 04:51:10;;;;;;;6.22;4.47;;;19.20;64.50;;;;;;4969897;28;20031;-55
2023/05/29 04:53:37;;;;;;;8.88;4.35;;;19.20;64.60;;;;;;4985716;28;20116;-55
2023/05/29 04:56:03;;;;;;;5.72;4.35;;;19.20;64.60;;;;;;4985533;28;20484;-55
2023/05/29 04:58:28;;;;;;;6.32;4.60;;;19.20;64.70;;;;;;4985862;28;20055;-55
2023/05/29 05:00:57;;;;;;;5.07;4.38;;;19.20;64.70;;;;;;4986749;28;20031;-54
2023/05/29 05:03:24;;;;;;;9.30;4.80;;;19.20;64.80;;;;;;4988224;28;20095;-55
2023/05/29 05:05:50;;;;;;;7.97;5.10;;;19.20;64.80;;;;;;4985680;28;20038;-55
2023/05/29 05:08:15;;;;;;;7.75;4.32;;;19.20;64.70;;;;;;4985247;28;20078;-53
2023/05/29 05:10:41;;;;;;;7.78;4.80;;;19.20;64.80;;;;;;4986133;28;20035;-55
2023/05/29 05:13:07;;;;;;;5.63;4.40;;;19.10;64.80;;;;;;4985697;28;20019;-55
2023/05/29 05:15:32;;;;;;;5.05;4.20;;;19.10;64.70;;;;;;4969068;28;20035;-55
2023/05/29 05:17:58;;;;;;;6.18;4.88;;;19.10;64.80;;;;;;4986982;28;20042;-55
2023/05/29 05:20:23;;;;;;;5.90;4.53;;;19.10;64.80;;;;;;4986807;28;20031;-55
2023/05/29 05:22:49;;;;;;;6.07;4.85;;;19.10;64.80;;;;;;4986896;28;20054;-55
2023/05/29 05:25:15;;;;;;;8.27;5.25;;;19.10;64.80;;;;;;4986864;28;20034;-55
2023/05/29 05:27:40;;;;;;;6.55;4.75;;;19.00;64.80;;;;;;4985547;28;20027;-55
2023/05/29 05:30:06;;;;;;;6.80;4.53;;;19.10;64.80;;;;;;4986982;28;20042;-55
2023/05/29 05:32:32;;;;;;;7.90;4.70;;;19.00;64.90;;;;;;4985223;28;20065;-55
2023/05/29 05:34:57;;;;;;;8.38;4.80;;;19.00;64.90;;;;;;4985216;28;20031;-55
2023/05/29 05:37:23;;;;;;;5.60;4.60;;;19.00;64.80;;;;;;4985284;28;20035;-55
2023/05/29 05:39:50;;;;;;;8.27;5.20;;;19.00;64.80;;;;;;4986516;28;20026;-55
2023/05/29 05:42:16;;;;;;;7.38;5.13;;;19.00;64.90;;;;;;4985168;28;20023;-55
2023/05/29 05:44:41;;;;;;;7.15;4.68;;;19.00;64.90;;;;;;4968778;28;20336;-55
2023/05/29 05:47:07;;;;;;;6.72;4.97;;;19.00;64.80;;;;;;4984997;28;20042;-55
2023/05/29 05:49:33;;;;;;;7.68;4.93;;;19.00;65.00;;;;;;4985074;28;20031;-55
2023/05/29 05:51:58;;;;;;;6.57;5.15;;;18.90;64.90;;;;;;4984903;28;20038;-55
2023/05/29 05:54:24;;;;;;;7.10;4.65;;;18.90;64.90;;;;;;4986283;28;20030;-55
2023/05/29 05:56:50;;;;;;;7.97;5.03;;;18.90;64.90;;;;;;4984998;28;20035;-55
2023/05/29 05:59:15;;;;;;;7.68;4.90;;;18.90;65.00;;;;;;4985273;28;20026;-55
2023/05/29 06:01:41;;;;;;;6.85;4.95;;;18.90;65.00;;;;;;4986031;28;20108;-55
2023/05/29 06:04:07;;;;;;;8.02;4.93;;;18.90;65.00;;;;;;4985161;28;20491;-55
2023/05/29 06:06:32;;;;;;;7.82;5.32;;;18.90;65.00;;;;;;4968283;28;20034;-55
2023/05/29 06:08:58;;;;;;;6.85;4.53;;;18.90;65.00;;;;;;4986234;28;20075;-54
2023/05/29 06:11:25;;;;;;;5.00;4.40;;;18.90;65.10;;;;;;4984818;28;20038;-55
2023/05/29 06:13:51;;;;;;;7.80;4.60;;;18.90;65.10;;;;;;4984652;28;20031;-55
2023/05/29 06:16:17;;;;;;;8.45;4.95;;;18.90;65.10;;;;;;4984491;28;20046;-55
2023/05/29 06:18:42;;;;;;;6.25;4.55;;;18.90;65.30;;;;;;4984881;28;20109;-55
2023/05/29 06:21:09;;;;;;;7.18;4.57;;;18.90;65.30;;;;;;4985278;28;20099;-54
2023/05/29 06:23:36;;;;;;;6.97;4.88;;;18.90;65.40;;;;;;4984768;28;20037;-55
2023/05/29 06:26:03;;;;;;;6.68;4.82;;;18.90;65.40;;;;;;4968534;28;20102;-55
2023/05/29 06:28:28;;;;;;;9.68;5.13;;;18.90;65.50;;;;;;4984798;28;20035;-55
2023/05/29 06:30:54;;;;;;;7.60;5.55;;;18.90;65.50;;;;;;4984749;28;20053;-54
2023/05/29 06:33:21;;;;;;;6.22;4.85;;;18.80;65.50;;;;;;4968278;28;20106;-55
2023/05/29 06:35:47;;;;;;;5.85;5.00;;;18.80;65.60;;;;;;4984627;28;20031;-55
2023/05/29 06:38:13;;;;;;;7.78;5.05;;;18.80;65.70;;;;;;4984274;28;20453;-55
2023/05/29 06:40:38;;;;;;;6.50;4.95;;;18.80;65.70;;;;;;4985489;28;20113;-55
2023/05/29 06:43:04;;;;;;;7.85;5.05;;;18.80;65.60;;;;;;4985984;28;20030;-55
2023/05/29 06:45:30;;;;;;;6.70;5.07;;;18.80;65.80;;;;;;4985602;28;20085;-55
2023/05/29 06:47:55;;;;;;;6.63;4.82;;;18.80;65.80;;;;;;4985739;28;20031;-55
2023/05/29 06:50:21;;;;;;;8.38;4.93;;;18.80;65.90;;;;;;4985648;28;20027;-55
2023/05/29 06:52:47;;;;;;;8.27;5.22;;;18.80;65.90;;;;;;4984536;28;20033;-55
2023/05/29 06:55:12;;;;;;;7.07;5.35;;;18.80;65.90;;;;;;4984708;28;20127;-55
2023/05/29 06:57:38;;;;;;;9.25;5.13;;;18.80;65.90;;;;;;4986782;28;20073;-54
2023/05/29 07:00:06;;;;;;;7.53;5.22;;;18.80;65.90;;;;;;4988130;28;20090;-55
2023/05/29 07:02:31;;;;;;;9.23;5.90;;;18.80;65.90;;;;;;4987912;28;20530;-55
2023/05/29 07:04:57;;;;;;;8.38;5.38;;;18.80;66.00;;;;;;4987897;28;20138;-54
2023/05/29 07:07:23;;;;;;;8.55;5.32;;;18.90;65.90;;;;;;4987835;28;20180;-55
2023/05/29 07:09:48;;;;;;;8.65;5.68;;;18.80;65.90;;;;;;4988116;28;20113;-55
2023/05/29 07:12:14;;;;;;;9.60;5.03;;;18.80;66.00;;;;;;4989078;28;20049;-55
2023/05/29 07:14:39;;;;;;;8.20;5.45;;;18.80;66.10;;;;;;4989053;28;20094;-55
2023/05/29 07:17:05;;;;;;;9.32;5.00;;;18.80;66.10;;;;;;4988910;28;20050;-55
2023/05/29 07:19:33;;;;;;;8.15;5.00;;;18.80;66.20;;;;;;4987376;28;20027;-55
2023/05/29 07:21:59;;;;;;;6.93;4.95;;;18.80;66.20;;;;;;4995171;28;20038;-55
2023/05/29 07:24:25;;;;;;;9.10;4.97;;;18.80;66.20;;;;;;4989060;28;20054;-55
2023/05/29 07:26:50;;;;;;;7.95;5.00;;;18.80;66.20;;;;;;4987022;28;20098;-54
2023/05/29 07:29:17;;;;;;;7.50;4.80;;;18.80;66.20;;;;;;4987093;28;20069;-55
2023/05/29 07:31:44;;;;;;;6.22;5.10;;;18.80;66.20;;;;;;4987209;28;20065;-55
2023/05/29 07:34:10;;;;;;;7.35;4.80;;;18.90;66.20;;;;;;4988602;28;20035;-55
2023/05/29 07:36:35;;;;;;;10.77;5.30;;;18.90;66.30;;;;;;4987193;28;20031;-55
2023/05/29 07:39:02;;;;;;;8.45;5.00;;;18.80;66.20;;;;;;4986742;28;20101;-55
2023/05/29 07:41:27;;;;;;;7.80;4.93;;;18.80;66.30;;;;;;4986606;28;20023;-55
2023/05/29 07:43:53;;;;;;;6.75;4.72;;;18.80;66.30;;;;;;4987251;28;20034;-55
2023/05/29 07:46:19;;;;;;;7.13;4.80;;;18.90;66.50;;;;;;4986916;28;20106;-55
2023/05/29 07:48:46;;;;;;;5.65;4.43;;;18.90;66.40;;;;;;4986788;28;20404;-55
2023/05/29 07:51:12;;;;;;;7.50;5.05;;;18.90;66.40;;;;;;4987030;28;20049;-55
2023/05/29 07:53:38;;;;;;;6.93;5.15;;;18.90;66.40;;;;;;4987007;28;20053;-55
2023/05/29 07:56:03;;;;;;;9.27;5.22;;;18.90;67.10;;;;;;4987002;28;20039;-55
2023/05/29 07:58:29;;;;;;;9.20;4.97;;;18.90;66.30;;;;;;4970439;28;20106;-55
2023/05/29 08:00:54;;;;;;;7.78;4.72;;;18.90;66.30;;;;;;4986704;28;20023;-55
2023/05/29 08:03:20;;;;;;;8.80;5.10;;;18.90;66.30;;;;;;4986790;28;20027;-55
2023/05/29 08:05:46;;;;;;;10.30;5.18;;;18.90;66.30;;;;;;4986545;28;20031;-55
2023/05/29 08:08:12;;;;;;;10.55;4.90;;;18.90;66.70;;;;;;4986432;28;20030;-55
2023/05/29 08:10:38;;;;;;;8.80;5.35;;;18.90;66.70;;;;;;4986648;28;20030;-54
2023/05/29 08:13:04;;;;;;;11.80;5.50;;;18.90;66.60;;;;;;4986446;28;20030;-54
2023/05/29 08:15:31;;;;;;;16.90;6.00;;;19.00;66.60;;;;;;4987534;28;20037;-55
2023/05/29 08:17:56;;;;;;;16.05;6.38;;;19.00;66.70;;;;;;4986408;28;20074;-55
2023/05/29 08:20:22;;;;;;;21.90;6.70;;;19.00;66.70;;;;;;4988038;28;20027;-55
2023/05/29 08:22:47;;;;;;;20.60;6.38;;;19.00;66.80;;;;;;4986113;28;20031;-55
2023/05/29 08:25:13;;;;;;;28.85;6.32;;;19.00;66.90;;;;;;4986133;28;20058;-55
2023/05/29 08:27:38;;;;;;;33.40;7.38;;;19.00;66.90;;;;;;4987763;28;20031;-54
2023/05/29 08:30:04;;;;;;;25.70;6.47;;;19.00;66.90;;;;;;4969866;28;20033;-55
2023/05/29 08:32:30;;;;;;;38.92;7.65;;;19.00;66.90;;;;;;4987410;28;20035;-55
2023/05/29 08:34:56;;;;;;;39.50;9.00;;;19.10;66.80;;;;;;4986385;28;20090;-55
2023/05/29 08:37:21;;;;;;;37.65;9.05;;;19.10;67.00;;;;;;4987658;28;20480;-55
2023/05/29 08:39:47;;;;;;;58.53;10.98;;;19.10;67.20;;;;;;4987395;28;20027;-55
2023/05/29 08:42:25;;;;;;;40.33;8.25;;;19.10;67.40;;;;;;4985887;28;20023;-55
2023/05/29 08:44:54;;;;;;;39.60;8.50;;;19.20;67.10;;;;;;4986034;28;20030;-55
2023/05/29 08:47:20;;;;;;;53.70;10.48;;;19.20;66.90;;;;;;4969721;28;20097;-55
2023/05/29 08:49:48;;;;;;;49.75;10.02;;;19.20;66.90;;;;;;4986178;28;20031;-55
2023/05/29 08:52:16;;;;;;;51.65;9.10;;;19.30;67.20;;;;;;4985758;28;20039;-55
2023/05/29 08:54:41;;;;;;;44.25;9.40;;;19.30;67.10;;;;;;4985603;28;20170;-55
2023/05/29 08:57:07;;;;;;;50.45;10.02;;;19.30;67.20;;;;;;4985422;28;20035;-55
2023/05/29 08:59:33;;;;;;;63.42;11.13;;;19.30;67.70;;;;;;4985692;28;20035;-55
2023/05/29 09:01:59;;;;;;;62.70;11.73;;;19.30;67.90;;;;;;4985228;28;20026;-55
2023/05/29 09:04:24;;;;;;;35.15;8.02;;;19.40;67.90;;;;;;4985218;28;20034;-55
2023/05/29 09:06:52;;;;;;;39.13;9.15;;;19.40;68.20;;;;;;4985388;28;20054;-55
2023/05/29 09:09:18;;;;;;;53.33;8.93;;;19.40;68.00;;;;;;4984998;28;20026;-54
2023/05/29 09:11:44;;;;;;;35.95;8.70;;;19.50;68.00;;;;;;4985307;28;20042;-54
2023/05/29 09:14:35;;;;;;;51.83;8.80;;;19.50;68.10;;;;;;4985467;28;20042;-55
2023/05/29 09:17:02;;;;;;;40.67;8.60;;;19.50;68.20;;;;;;4986105;28;20035;-55
2023/05/29 09:19:28;;;;;;;51.13;9.63;;;19.60;68.10;;;;;;4984546;28;20034;-55
2023/05/29 09:22:00;;;;;;;54.20;9.77;;;19.60;68.20;;;;;;4986460;28;20035;-55
2023/05/29 09:24:27;;;;;;;67.28;10.55;;;19.60;68.00;;;;;;4985230;28;20098;-55
2023/05/29 09:26:53;;;;;;;41.85;9.15;;;19.70;68.10;;;;;;4985022;28;20038;-55
2023/05/29 09:29:19;;;;;;;31.48;7.72;;;19.70;67.90;;;;;;4984927;28;20031;-55
2023/05/29 09:31:47;;;;;;;40.47;9.90;;;19.70;67.70;;;;;;4985009;28;20026;-55
2023/05/29 09:34:13;;;;;;;73.05;11.10;;;19.80;67.80;;;;;;4986114;28;20031;-55
2023/05/29 09:36:38;;;;;;;42.67;8.40;;;19.80;68.10;;;;;;4985682;28;20135;-55
2023/05/29 09:39:04;;;;;;;60.55;11.40;;;19.90;67.90;;;;;;4985090;28;20022;-54
2023/05/29 09:41:32;;;;;;;38.17;9.65;;;19.90;68.10;;;;;;4985823;28;20022;-55
2023/05/29 09:44:00;;;;;;;42.47;9.48;;;19.90;68.00;;;;;;4984703;28;20031;-55
2023/05/29 09:46:26;;;;;;;50.78;10.27;;;19.90;67.90;;;;;;4968299;28;20114;-55
2023/05/29 09:48:51;;;;;;;90.72;14.20;;;20.00;67.70;;;;;;4985940;28;20027;-55
2023/05/29 09:51:23;;;;;;;108.70;14.68;;;20.10;68.00;;;;;;4984717;28;20027;-55
2023/05/29 09:53:50;;;;;;;63.50;12.35;;;20.10;68.10;;;;;;4983688;28;20061;-55
2023/05/29 09:56:17;;;;;;;89.00;13.93;;;20.10;68.00;;;;;;4984383;28;20033;-55
2023/05/29 09:58:46;;;;;;;79.50;12.68;;;20.20;68.10;;;;;;4982705;28;20035;-55
2023/05/29 10:01:18;;;;;;;62.10;10.32;;;20.20;67.90;;;;;;4982921;28;20408;-54
2023/05/29 10:03:43;;;;;;;196.43;23.67;;;20.30;68.40;;;;;;4978583;28;20035;-55
2023/05/29 10:06:16;;;;;;;87.32;16.17;;;20.30;67.90;;;;;;4981231;28;20062;-55
2023/05/29 10:08:49;;;;;;;92.93;15.32;;;20.40;67.80;;;;;;4978078;28;20039;-55
2023/05/29 10:11:16;;;;;;;103.80;15.70;;;20.40;68.40;;;;;;4986473;28;20094;-55
2023/05/29 10:13:42;;;;;;;109.72;15.75;;;20.50;67.80;;;;;;4983421;28;20058;-55
2023/05/29 10:16:10;;;;;;;122.22;18.05;;;20.50;67.60;;;;;;4969014;28;20039;-55
2023/05/29 10:18:38;;;;;;;127.57;15.40;;;20.60;67.40;;;;;;4965181;28;20082;-55
2023/05/29 10:21:04;;;;;;;109.60;15.30;;;20.70;67.20;;;;;;4980692;28;20035;-55
2023/05/29 10:23:30;;;;;;;92.30;14.85;;;20.70;67.20;;;;;;4965121;29;20166;-55
2023/05/29 10:26:04;;;;;;;126.60;18.55;;;20.80;67.20;;;;;;4980202;28;20361;-55
2023/05/29 10:28:29;;;;;;;141.82;17.92;;;20.80;67.20;;;;;;4981691;28;20018;-54
2023/05/29 10:31:04;;;;;;;142.60;17.73;;;20.90;67.00;;;;;;4964657;28;20053;-55
2023/05/29 10:33:52;;;;;;;85.87;15.43;;;20.90;67.00;;;;;;4968510;29;20288;-55
2023/05/29 10:36:21;;;;;;;185.60;23.08;;;21.00;67.00;;;;;;4964658;28;20247;-55
2023/05/29 10:38:46;;;;;;;141.48;20.85;;;21.00;67.10;;;;;;4967912;28;20397;-55
2023/05/29 10:41:27;;;;;;;156.35;20.05;;;21.10;66.90;;;;;;4968576;29;20023;-55
2023/05/29 10:44:00;;;;;;;134.75;17.90;;;21.10;66.80;;;;;;4975049;28;20046;-55
2023/05/29 10:46:44;;;;;;;102.75;16.73;;;21.20;66.50;;;;;;4985401;28;20050;-55
2023/05/29 10:49:19;;;;;;;139.88;18.65;;;21.40;66.30;;;;;;5010471;28;20038;-55
2023/05/29 10:51:45;;;;;;;170.52;20.50;;;21.40;66.20;;;;;;4987819;28;20084;-55
2023/05/29 10:54:10;;;;;;;130.70;18.48;;;21.50;66.00;;;;;;4987769;28;20110;-55
2023/05/29 10:56:36;;;;;;;124.28;16.80;;;21.60;65.90;;;;;;4987709;28;20459;-55
2023/05/29 10:59:02;;;;;;;112.78;16.13;;;21.60;66.40;;;;;;4982998;28;20090;-55
2023/05/29 11:01:28;;;;;;;116.65;15.60;;;21.80;65.40;;;;;;4965479;28;20054;-55
2023/05/29 11:04:15;;;;;;;121.07;16.45;;;21.90;65.30;;;;;;4980157;28;20059;-55
2023/05/29 11:06:41;;;;;;;105.90;15.45;;;22.00;64.90;;;;;;4986235;28;20153;-55
2023/05/29 11:09:09;;;;;;;101.35;16.65;;;22.10;64.90;;;;;;4983831;28;20168;-55
2023/05/29 11:11:40;;;;;;;168.65;21.20;;;22.10;64.60;;;;;;4986184;28;20046;-54
2023/05/29 11:14:06;;;;;;;174.23;21.05;;;22.30;64.20;;;;;;4979910;28;20031;-55
2023/05/29 11:16:32;;;;;;;134.32;17.40;;;22.40;63.80;;;;;;4979085;28;20031;-55
2023/05/29 11:18:59;;;;;;;115.15;16.98;;;22.40;63.40;;;;;;4980361;28;20101;-55
2023/05/29 11:21:46;;;;;;;144.48;18.63;;;22.60;63.20;;;;;;4979127;28;20031;-55
2023/05/29 11:24:24;;;;;;;98.53;15.25;;;22.70;62.90;;;;;;4982216;28;20054;-55
2023/05/29 11:26:54;;;;;;;103.50;15.88;;;22.80;62.60;;;;;;4986913;28;20054;-54
2023/05/29 11:29:24;;;;;;;80.25;13.77;;;22.90;62.10;;;;;;4985041;28;20038;-55
2023/05/29 11:32:02;;;;;;;111.63;18.35;;;23.00;61.10;;;;;;4985594;28;20090;-55
2023/05/29 11:34:29;;;;;;;96.82;15.50;;;23.00;61.30;;;;;;4984370;28;20046;-55
2023/05/29 11:36:56;;;;;;;105.28;15.73;;;23.10;61.30;;;;;;4985909;28;20046;-55
2023/05/29 11:39:22;;;;;;;149.25;18.35;;;23.20;61.00;;;;;;4985426;28;20050;-55
2023/05/29 11:41:50;;;;;;;105.57;15.63;;;23.30;60.80;;;;;;4969509;28;20027;-55
2023/05/29 11:44:16;;;;;;;131.25;19.17;;;23.40;60.60;;;;;;4985668;28;20027;-55
2023/05/29 11:46:41;;;;;;;103.60;16.35;;;23.40;60.70;;;;;;4986383;28;20058;-54
2023/05/29 11:49:07;;;;;;;110.07;16.58;;;23.50;60.10;;;;;;4987285;28;20472;-55
2023/05/29 11:51:33;;;;;;;101.82;15.15;;;23.60;60.00;;;;;;4976881;28;20399;-54
2023/05/29 11:53:58;;;;;;;134.32;16.52;;;23.70;59.50;;;;;;4981827;28;20053;-54
2023/05/29 11:56:27;;;;;;;93.22;16.10;;;23.70;59.20;;;;;;4983503;28;20094;-55
2023/05/29 11:58:56;;;;;;;94.82;13.90;;;23.80;59.10;;;;;;4967578;28;20027;-55
2023/05/29 12:01:23;;;;;;;84.40;13.80;;;23.90;58.50;;;;;;4980288;28;20054;-55
2023/05/29 12:03:49;;;;;;;121.18;17.23;;;24.00;58.60;;;;;;4977691;28;20039;-55
2023/05/29 12:06:14;;;;;;;72.03;14.60;;;24.10;59.10;;;;;;4975528;28;20038;-55
2023/05/29 12:08:40;;;;;;;100.07;13.95;;;24.10;58.60;;;;;;4996744;28;20062;-55
2023/05/29 12:11:05;;;;;;;85.28;12.75;;;24.20;58.30;;;;;;4983100;28;20089;-55
2023/05/29 12:13:31;;;;;;;56.47;10.50;;;24.30;57.90;;;;;;4985957;28;20035;-55
2023/05/29 12:16:02;;;;;;;60.85;10.27;;;24.30;57.40;;;;;;4979761;28;20114;-55
2023/05/29 12:18:28;;;;;;;60.22;9.85;;;24.30;57.00;;;;;;4966095;28;20119;-55
2023/05/29 12:20:58;;;;;;;47.70;10.32;;;24.40;57.10;;;;;;4984480;28;20180;-55
2023/05/29 12:23:24;;;;;;;44.72;9.48;;;24.50;56.90;;;;;;5018634;28;20035;-55
2023/05/29 12:25:50;;;;;;;36.65;8.10;;;24.50;57.00;;;;;;5018539;28;20049;-55
2023/05/29 12:28:18;;;;;;;37.70;7.97;;;24.60;57.00;;;;;;5001859;28;20027;-55
2023/05/29 12:30:49;;;;;;;38.67;7.80;;;24.60;56.90;;;;;;5000003;28;20047;-55
2023/05/29 12:33:33;;;;;;;23.27;7.00;;;24.60;56.50;;;;;;5015384;28;20026;-55
2023/05/29 12:36:06;;;;;;;22.17;6.47;;;24.80;56.70;;;;;;5016732;28;20039;-55
2023/05/29 12:38:32;;;;;;;20.77;6.10;;;24.80;56.00;;;;;;4985557;28;20026;-55